Nearby METAR Reports

 

KBML - Berlin, NH
Updated: Mon, 06-Feb-2023 9:52am EST
Overcast
Overcast
 Wind from calm
Wind: Calm
Temperature: 34°F , 1°C
Dew Point: 27°F , -3°C
Humidity: 75%
Barometer: 30.01 inHg , 1016.3 hPa
Clouds: Overcast
Visibility: 10 miles , 16 km
Cloud details: Overcast 1800 ft
2023/02/06 14:52 KBML 061452Z AUTO 00000KT 10SM OVC018 01/M03 A3001 RMK AO2 SLP176 T00111028 51024
KCON - Concord, NH
Updated: Mon, 06-Feb-2023 7:51am EST
NOT Current
Clear
Clear
 Wind from varies
Wind: varies 5 mph , 7 km/h, Gust: 17 mph , 28 km/h
Temperature: 21°F , -6°C
Wind Chill: 14°F , -10°C
Dew Point: 18°F , -8°C
Humidity: 86%
Barometer: 29.99 inHg , 1015.6 hPa
Clouds: Clear
Visibility: 10 miles , 16 km
2023/02/06 12:51 KCON 061251Z AUTO VRB04G15KT 10SM CLR M06/M08 A2999 RMK AO2 SLP162 T10561078
KAFN - Lebanon, NH
Updated: Mon, 06-Feb-2023 9:52am EST
Clear
Clear
 Wind from calm
Wind: Calm
Temperature: 30°F , -1°C
Dew Point: 25°F , -4°C
Humidity: 80%
Barometer: 29.98 inHg , 1015.2 hPa
Clouds: Clear
Visibility: 10 miles , 16 km
2023/02/06 14:52 KAFN 061452Z AUTO 00000KT 10SM CLR M01/M04 A2998 RMK AO2 SLP169 T10061044 51012
 
KMHT - Manchester, NH
Updated: Mon, 06-Feb-2023 9:53am EST
Mostly cloudy
Mostly cloudy
 Wind from NNW
Wind: NNW 8 mph , 13 km/h
Temperature: 37°F , 3°C
Wind Chill: 31°F , -1°C
Dew Point: 25°F , -4°C
Humidity: 60%
Barometer: 29.99 inHg , 1015.6 hPa
Clouds: Mostly cloudy
Visibility: 10 miles , 16 km
Cloud details: Partly cloudy 20000 ft
Mostly cloudy 25000 ft
2023/02/06 14:53 KMHT 061453Z 34007KT 10SM SCT200 BKN250 03/M04 A2999 RMK AO2 SLP173 T00281039 51010
KMWN - Mount Washington
Updated: Mon, 06-Feb-2023 9:49am EST
Freezing fog, Overcast
Freezing fog, Overcast
 Wind from NW
Wind: NW 38 mph , 61 km/h, Gust: 45 mph , 72 km/h
Temperature: 18°F , -8°C
Wind Chill: -3°F , -19°C
Dew Point: 18°F , -8°C
Humidity: 100%
Summary: Freezing Fog
Clouds: Overcast
Visibility: 0 miles , 0 km
Cloud details: Overcast 0 ft
2023/02/06 14:49 KMWN 061449Z 31033G39KT 0SM FZFG VV000 M08/M08 RMK VRY LGT ICG
K25B - Portsmouth Harbor
Updated: Mon, 06-Feb-2023 10:12am EST
unable to load K25B data RC=404 Not Found
unable to load K25B data RC=404 Not Found
 
 
KDDH - Bennington, VT
Updated: Mon, 06-Feb-2023 9:54am EST
Overcast
Overcast
 Wind from WNW
Wind: WNW 3 mph , 6 km/h
Temperature: 37°F , 3°C
Dew Point: 21°F , -6°C
Humidity: 52%
Barometer: 30.03 inHg , 1016.9 hPa
Clouds: Overcast
Visibility: 10 miles , 16 km
Cloud details: Overcast 3500 ft
2023/02/06 14:54 KDDH 061454Z AUTO 30003KT 10SM OVC035 03/M06 A3003 RMK AO2 SLP176 T00331056 51023
K9B2 - Newport, VT
Updated: Mon, 06-Feb-2023 10:12am EST
unable to load K9B2 data RC=404 Not Found
unable to load K9B2 data RC=404 Not Found
 
K1V4 - St Johnsbury, VT
Updated: Sat, 04-Feb-2023 10:54am EST
NOT Current

 
Temperature: -9°F , -23°C
Dew Point: -29°F , -34°C
Humidity: 36%
Barometer: 30.45 inHg , 1031.2 hPa
2023/02/04 15:54 K1V4 041554Z AUTO M23/M34 A3045 RMK AO1 SLP353 T12281339 PNO
 
KBGR - Bangor, ME
Updated: Mon, 06-Feb-2023 9:53am EST
Overcast
Overcast
 Wind from NNW
Wind: NNW 5 mph , 7 km/h
Temperature: 25°F , -4°C
Wind Chill: 19°F , -7°C
Dew Point: 14°F , -10°C
Humidity: 63%
Barometer: 30.04 inHg , 1017.3 hPa
Clouds: Overcast
Visibility: 10 miles , 16 km
Cloud details: Mostly cloudy 5000 ft
Overcast 15000 ft
2023/02/06 14:53 KBGR 061453Z 33004KT 10SM BKN050 OVC150 M04/M10 A3004 RMK AO2 SLP176 T10391100 53016
KBHB - Bar Harbor, ME
Updated: Mon, 06-Feb-2023 9:56am EST
Overcast
Overcast
 Wind from N
Wind: N 7 mph , 11 km/h
Temperature: 34°F , 1°C
Wind Chill: 28°F , -2°C
Dew Point: 25°F , -4°C
Humidity: 70%
Barometer: 30.02 inHg , 1016.6 hPa
Clouds: Overcast
Visibility: 10 miles , 16 km
Cloud details: Partly cloudy 5000 ft
Mostly cloudy 6500 ft
Overcast 7500 ft
2023/02/06 14:56 KBHB 061456Z AUTO 01006KT 10SM SCT050 BKN065 OVC075 01/M04 A3002 RMK AO2 SLP167 T00061044 51012 FZRANO
74389 - Gray, ME
Updated: Wed, 31-Dec-1969 7:00pm EST
NOT Current
74389 not loaded
74389 not loaded
 
 
KGNR - Greenville,ME
Updated: Mon, 06-Feb-2023 9:56am EST

 Wind from NNW
Wind: NNW 8 mph , 13 km/h
Temperature: 30°F , -1°C
Wind Chill: 22°F , -6°C
Dew Point: 27°F , -3°C
Humidity: 86%
Barometer: 29.97 inHg , 1014.9 hPa
2023/02/06 14:56 KGNR 061456Z AUTO 33007KT M01/M03 A2997 RMK AO1 SLP170 T10061028 51031
KOLD - Old Town, ME
Updated: Mon, 06-Feb-2023 10:12am EST
unable to load KOLD data RC=404 Not Found
unable to load KOLD data RC=404 Not Found
 
KRUM - Rumford, ME
Updated: Mon, 06-Feb-2023 10:12am EST
unable to load KRUM data RC=404 Not Found
unable to load KRUM data RC=404 Not Found
 







Contact Us

© 2023, johnsnhweather | Weather-Display (10.37S-(b145)) | Valid XHTML 1.0 | Valid CSS

This website is neither affiliated with nor endorsed by the National Weather Service, the town of Pittsburg or any other government agency.
The weather data contained herein is offered without any warranties expressed or implied, and is meant to supplement NOAA weather forecasts and information. Never base important decisions that could result in harm to people or property on this weather information.